Broadway, OH

3:07 AM EDT on October 01, 2014 (GMT -0400)
Ohio State University | Change Station
CLOSE
Current Station
Airport
Location: Ohio State University,
Elevation: 906 ft
Nearby Weather Stations

Elev 906 ft 40.08 °N, 83.08 °W | Updated 14 minutes ago

Partly Cloudy
Partly Cloudy
49 °F
Feels Like 49 °F
N
5
Wind Variable Wind from North

Today
High -- | Low -- °F
--% Chance of Precip.
Yesterday
High -- | Low -- °F
Precip. -- in
7:30 AM 7:15 PM
Waxing Crescent, 44% visible
Pressure 30.01 in
Visibility 4.0 miles
Clouds Scattered Clouds 1200 ft
Mostly Cloudy 3100 ft
Dew Point 48 °F
Humidity 97%
Rainfall 0.00 in
Snow Depth Not available.
UV 0 out of 12
Pollen 2.70 out of 12
Ozone Good
PM2.5 Good
Flu Activity Not available.
METAR KOSU 010653Z AUTO 35004KT 4SM BR SCT012 BKN031 09/09 A3000 RMK AO2 SLP161 T00940089

More Conditions Fewer Conditions

Pressure 30.01 in
Visibility 4.0 miles
Clouds Scattered Clouds 1200 ft
Mostly Cloudy 3100 ft
Dew Point 48 °F
Humidity 97%
Rainfall 0.00 in
Snow Depth Not available.
UV 0 out of 12
Pollen 2.70 out of 12
Ozone Good
PM2.5 Good
Flu Activity Not available.
METAR KOSU 010653Z AUTO 35004KT 4SM BR SCT012 BKN031 09/09 A3000 RMK AO2 SLP161 T00940089

More Conditions Fewer Conditions

10-Day Weather Forecast

Almanac

Astronomy

Oct. 01, 2014 Rise Set
Actual Time 7:30 AM EDT 7:15 PM EDT
Civil Twilight 7:02 AM EDT 7:42 PM EDT
Nautical Twilight 6:31 AM EDT 8:14 PM EDT
Astronomical Twilight 5:59 AM EDT 8:46 PM EDT
Moon 2:30 PM EDT No Moon Set
Length of Visible Light 12h 40m
Length of Day
11h 45m
Tomorrow will be 2m 39s shorter.
Waxing Crescent, 44% of the Moon is Illuminated
Today
Waxing Crescent
Oct 1
First Quarter
Oct 8
Full
Oct 15
Last Quarter
Oct 23
New

Today's Extremes

State Highs State Lows

Community

WunderPhotos

Upload Photos

1,757,898 photos uploaded!

Nearby

Air Quality

  Air Quality AQ Index Pollutant
Yesterday Good
PM2.5
Yesterday Good
OZONE
Current Good
PM2.5
Current Good
OZONE
Wednesday Moderate
PM2.5
Wednesday Moderate
OZONE
Thursday Moderate
PM2.5
Thursday Moderate
OZONE
Friday Good
PM2.5
Friday Good
OZONE
Saturday Good
OZONE
Saturday Good
PM2.5
Sunday Good
OZONE
Sunday Good
PM2.5

Snow Depth

Station Depth Elevation
No new snow has been reported.

Earthquake Activity

City Distance Mag. Time & Date
No recent earthquake activity has been reported nearby.
Minimum magnitude displayed is 2.5.

Coastal Water Temperatures

Place Temperature
No Stations Reporting

Nearby Weather Stations